Time;durP1;ratioP1;P1;durP2;ratioP2;P2;SDS_P1;SDS_P2;PMS_P1;PMS_P2;Temp;Humidity;BMP_temperature;BMP_pressure;BME280_temperature;BME280_humidity;BME280_pressure;Samples;Min_cycle;Max_cycle;Signal;HPM_P1;HPM_P2
2022/05/24 00:02:19;;;;;;;14.18;5.75;;;14.20;99.90;;;;;;5029047;28;20087;-67
2022/05/24 00:04:46;;;;;;;10.05;5.40;;;14.20;99.90;;;;;;5029673;28;20091;-67
2022/05/24 00:07:11;;;;;;;10.70;5.60;;;14.20;99.90;;;;;;5022048;28;20498;-69
2022/05/24 00:09:37;;;;;;;10.57;5.60;;;14.20;99.90;;;;;;5029491;28;20108;-67
2022/05/24 00:12:03;;;;;;;14.80;5.32;;;14.30;99.90;;;;;;5028850;28;20212;-70
2022/05/24 00:17:13;;;;;;;11.85;5.07;;;14.20;99.90;;;;;;5024274;28;20501;-68
2022/05/24 00:19:39;;;;;;;12.63;5.32;;;14.20;99.90;;;;;;5029569;28;20038;-68
2022/05/24 00:22:05;;;;;;;11.35;5.63;;;14.20;99.90;;;;;;5027507;28;20046;-67
2022/05/24 00:24:30;;;;;;;13.27;5.25;;;14.20;99.90;;;;;;5027812;28;20033;-67
2022/05/24 00:26:56;;;;;;;9.68;3.80;;;14.20;99.90;;;;;;5027309;28;20417;-67
2022/05/24 00:29:21;;;;;;;7.75;3.38;;;14.20;99.90;;;;;;5027714;28;20076;-68
2022/05/24 00:31:47;;;;;;;14.45;3.90;;;14.20;99.90;;;;;;5028707;28;20060;-68
2022/05/24 00:34:13;;;;;;;11.77;2.92;;;14.20;99.90;;;;;;5021718;28;20033;-68
2022/05/24 00:36:38;;;;;;;10.13;3.00;;;14.20;99.90;;;;;;5028073;28;20115;-67
2022/05/24 00:39:04;;;;;;;10.07;2.80;;;14.20;99.90;;;;;;5027793;28;20030;-67
2022/05/24 00:41:36;;;;;;;9.63;3.13;;;14.20;99.90;;;;;;5028633;28;20037;-68
2022/05/24 00:44:07;;;;;;;10.35;3.10;;;14.20;99.90;;;;;;5010169;28;20379;-67
2022/05/24 00:46:48;;;;;;;11.68;3.97;;;14.20;99.90;;;;;;5023645;28;20034;-67
2022/05/24 00:49:35;;;;;;;13.40;4.47;;;14.10;99.90;;;;;;5027720;28;20048;-67
2022/05/24 00:52:07;;;;;;;14.52;4.90;;;14.10;99.90;;;;;;5016937;28;20049;-68
2022/05/24 00:54:33;;;;;;;14.68;6.85;;;14.10;99.90;;;;;;5003602;28;20034;-68
2022/05/24 00:57:09;;;;;;;15.68;6.40;;;14.00;99.90;;;;;;5028296;28;20044;-69
2022/05/24 00:59:37;;;;;;;13.85;6.90;;;14.10;99.90;;;;;;4997536;28;20561;-68
2022/05/24 01:02:04;;;;;;;20.15;6.88;;;14.10;99.90;;;;;;5027676;28;20064;-68
2022/05/24 01:04:29;;;;;;;20.83;7.40;;;14.00;99.90;;;;;;5027448;28;20033;-67
2022/05/24 01:06:55;;;;;;;20.38;6.32;;;14.10;99.90;;;;;;5024403;28;20090;-67
2022/05/24 01:09:28;;;;;;;18.25;6.63;;;14.00;99.90;;;;;;5025816;28;20044;-67
2022/05/24 01:12:03;;;;;;;10.93;5.28;;;14.00;99.90;;;;;;5027915;28;20184;-67
2022/05/24 01:14:30;;;;;;;15.27;6.22;;;13.90;99.90;;;;;;5019977;28;20107;-67
2022/05/24 01:16:57;;;;;;;14.52;5.75;;;13.80;99.90;;;;;;5019636;28;20027;-67
2022/05/24 01:19:34;;;;;;;17.27;5.47;;;13.70;99.90;;;;;;5026528;28;20041;-67
2022/05/24 01:22:11;;;;;;;14.93;5.28;;;13.70;99.90;;;;;;5019179;28;20087;-68
2022/05/24 01:25:02;;;;;;;16.73;5.07;;;13.60;99.90;;;;;;5025758;28;20041;-67
2022/05/24 01:27:28;;;;;;;14.32;4.72;;;13.50;99.90;;;;;;5018650;28;20021;-67
2022/05/24 01:29:53;;;;;;;16.95;5.40;;;13.50;99.90;;;;;;5027483;28;20033;-67
2022/05/24 01:37:48;;;;;;;12.27;3.78;;;13.40;99.90;;;;;;5027274;28;20071;-67
2022/05/24 01:40:14;;;;;;;16.17;3.05;;;13.50;99.90;;;;;;5026850;28;20527;-67
2022/05/24 01:42:40;;;;;;;9.10;2.70;;;13.50;99.90;;;;;;5026728;28;20486;-67
2022/05/24 01:45:22;;;;;;;7.60;2.80;;;13.60;99.90;;;;;;5027166;28;20037;-68
2022/05/24 01:47:52;;;;;;;10.07;2.80;;;13.50;99.90;;;;;;5027304;28;20075;-69
2022/05/24 01:50:22;;;;;;;13.82;2.63;;;13.50;99.90;;;;;;5025263;28;20065;-67
2022/05/24 01:53:05;;;;;;;10.50;1.98;;;13.50;99.90;;;;;;5026668;28;20049;-67
2022/05/24 01:55:37;;;;;;;9.82;3.13;;;13.50;99.90;;;;;;5020711;28;20493;-68
2022/05/24 01:58:08;;;;;;;9.70;2.67;;;13.50;99.90;;;;;;5026726;28;20084;-69
2022/05/24 02:00:33;;;;;;;;;;;13.50;99.90;;;;;;5026973;28;20044;-67
2022/05/24 02:02:59;;;;;;;6.93;2.78;;;13.50;99.90;;;;;;5024144;28;20298;-67
2022/05/24 02:05:37;;;;;;;8.02;2.95;;;13.50;99.90;;;;;;5026874;28;20029;-68
2022/05/24 02:08:07;;;;;;;8.82;3.05;;;13.50;99.90;;;;;;5026033;28;20037;-68
2022/05/24 02:11:02;;;;;;;7.40;2.50;;;13.40;99.90;;;;;;5026263;28;20112;-67
2022/05/24 02:13:33;;;;;;;10.00;3.05;;;13.40;99.90;;;;;;5018114;28;20044;-70
2022/05/24 02:16:03;;;;;;;11.25;3.20;;;13.40;99.90;;;;;;5023621;28;20030;-67
2022/05/24 02:18:29;;;;;;;10.73;3.53;;;13.40;99.90;;;;;;5026556;28;20478;-67
2022/05/24 02:20:55;;;;;;;12.48;3.45;;;13.40;99.90;;;;;;5025512;28;20405;-67
2022/05/24 02:23:21;;;;;;;10.48;2.92;;;13.40;99.90;;;;;;5024224;28;20025;-67
2022/05/24 02:25:56;;;;;;;11.57;2.78;;;13.40;99.90;;;;;;5022489;28;20116;-67
2022/05/24 02:28:29;;;;;;;11.40;3.75;;;13.40;99.90;;;;;;5018193;28;20026;-67
2022/05/24 02:30:58;;;;;;;8.80;3.40;;;13.40;99.90;;;;;;5019401;28;20045;-68
2022/05/24 02:33:24;;;;;;;12.15;3.60;;;13.40;99.90;;;;;;5016121;28;20044;-67
2022/05/24 02:35:50;;;;;;;11.80;3.60;;;13.40;99.90;;;;;;5025451;28;20022;-66
2022/05/24 02:38:16;;;;;;;13.95;3.95;;;13.40;99.90;;;;;;5026287;28;21128;-67
2022/05/24 02:43:26;;;;;;;10.35;3.90;;;13.30;99.90;;;;;;5010337;28;20168;-67
2022/05/24 02:45:52;;;;;;;8.35;4.03;;;13.30;99.90;;;;;;5019191;28;20121;-69
2022/05/24 02:48:17;;;;;;;14.15;4.28;;;13.30;99.90;;;;;;5025699;28;20244;-67
2022/05/24 02:50:43;;;;;;;11.30;4.28;;;13.30;99.90;;;;;;5026337;28;20041;-70
2022/05/24 02:53:10;;;;;;;10.35;4.10;;;13.20;99.90;;;;;;5025561;28;20513;-67
2022/05/24 02:55:35;;;;;;;19.00;4.80;;;13.20;99.90;;;;;;5024178;28;20501;-68
2022/05/24 02:58:01;;;;;;;11.20;3.90;;;13.20;99.90;;;;;;5026473;28;20037;-67
2022/05/24 03:00:27;;;;;;;11.55;4.30;;;13.30;99.90;;;;;;5024399;28;20036;-67
2022/05/24 03:02:54;;;;;;;13.45;4.50;;;13.20;99.90;;;;;;5026361;28;20481;-67
2022/05/24 03:05:20;;;;;;;12.00;4.82;;;13.20;99.90;;;;;;5017540;28;20114;-67
2022/05/24 03:10:32;;;;;;;10.45;4.00;;;13.30;99.90;;;;;;5029175;28;20175;-67
2022/05/24 03:15:44;;;;;;;12.80;4.47;;;13.30;99.90;;;;;;5029635;28;20044;-69
2022/05/24 03:18:13;;;;;;;14.30;4.15;;;13.20;99.90;;;;;;5029960;28;20486;-67
2022/05/24 03:20:40;;;;;;;14.07;5.10;;;13.20;99.90;;;;;;5029738;28;20041;-67
2022/05/24 03:23:07;;;;;;;11.75;3.97;;;13.20;99.90;;;;;;5027441;28;20088;-67
2022/05/24 03:25:33;;;;;;;14.93;4.82;;;13.10;99.90;;;;;;5026129;28;20041;-67
2022/05/24 03:28:00;;;;;;;12.27;4.65;;;13.10;99.90;;;;;;5030194;28;20029;-68
2022/05/24 03:30:27;;;;;;;12.32;4.88;;;13.10;99.90;;;;;;5026698;28;20041;-68
2022/05/24 03:32:53;;;;;;;10.95;3.97;;;13.10;99.90;;;;;;5028780;28;20038;-68
2022/05/24 03:35:20;;;;;;;15.23;5.13;;;13.20;99.90;;;;;;5029010;28;20387;-69
2022/05/24 03:37:45;;;;;;;15.20;4.47;;;13.20;99.90;;;;;;5030031;28;20033;-68
2022/05/24 03:40:11;;;;;;;8.60;4.07;;;13.20;99.90;;;;;;5029807;28;20524;-67
2022/05/24 03:42:38;;;;;;;8.95;4.40;;;13.10;99.90;;;;;;5028947;28;20033;-67
2022/05/24 03:45:05;;;;;;;14.32;4.78;;;13.10;99.90;;;;;;5029842;28;20042;-69
2022/05/24 03:47:31;;;;;;;12.77;4.97;;;13.10;99.90;;;;;;5027918;28;20371;-67
2022/05/24 03:49:56;;;;;;;11.60;4.60;;;13.00;99.90;;;;;;5029573;28;20033;-67
2022/05/24 03:52:22;;;;;;;15.57;4.80;;;13.00;99.90;;;;;;5028468;28;20040;-70
2022/05/24 03:54:48;;;;;;;14.98;4.75;;;13.00;99.90;;;;;;5029238;28;20406;-67
2022/05/24 03:59:58;;;;;;;11.57;4.43;;;13.00;99.90;;;;;;5016682;28;20429;-68
2022/05/24 04:02:24;;;;;;;10.35;4.95;;;13.00;99.90;;;;;;5027756;28;20037;-68
2022/05/24 04:04:50;;;;;;;13.65;4.72;;;13.00;99.90;;;;;;5015286;28;20049;-67
2022/05/24 04:07:15;;;;;;;14.60;4.75;;;13.00;99.90;;;;;;5018253;28;20026;-67
2022/05/24 04:09:41;;;;;;;12.65;4.70;;;13.10;99.90;;;;;;5029356;28;20449;-67
2022/05/24 04:12:08;;;;;;;17.83;5.13;;;13.20;99.90;;;;;;5028979;28;20037;-67
2022/05/24 04:14:35;;;;;;;9.25;4.10;;;13.20;99.90;;;;;;5028183;28;20059;-69
2022/05/24 04:17:01;;;;;;;13.13;5.25;;;13.20;99.90;;;;;;5029096;28;20119;-67
2022/05/24 04:19:27;;;;;;;14.30;5.47;;;13.20;99.90;;;;;;5028128;28;20538;-67
2022/05/24 04:21:53;;;;;;;9.40;5.28;;;13.20;99.90;;;;;;5024591;28;20037;-69
2022/05/24 04:24:19;;;;;;;12.40;5.50;;;13.20;99.90;;;;;;5028017;28;20038;-67
2022/05/24 04:26:45;;;;;;;9.48;5.00;;;13.20;99.90;;;;;;5021618;28;20032;-66
2022/05/24 04:29:12;;;;;;;12.82;5.95;;;13.20;99.90;;;;;;5029251;28;20505;-68
2022/05/24 04:31:38;;;;;;;19.77;6.50;;;13.20;99.90;;;;;;5015228;28;20040;-67
2022/05/24 04:34:04;;;;;;;15.57;5.78;;;13.20;99.90;;;;;;5005405;28;20743;-68
2022/05/24 04:36:31;;;;;;;17.83;5.25;;;13.20;99.90;;;;;;5010674;28;20068;-68
2022/05/24 04:38:57;;;;;;;13.90;5.50;;;13.20;99.90;;;;;;5014012;28;20038;-66
2022/05/24 04:44:07;;;;;;;14.43;5.28;;;13.20;99.90;;;;;;5011169;28;20029;-70
2022/05/24 04:49:19;;;;;;;12.13;5.78;;;13.20;99.90;;;;;;4994321;28;20049;-67
2022/05/24 04:51:45;;;;;;;19.65;6.10;;;13.20;99.90;;;;;;5022172;28;20178;-66
2022/05/24 04:54:11;;;;;;;11.32;5.25;;;13.20;99.90;;;;;;5016487;28;20041;-69
2022/05/24 04:56:37;;;;;;;13.30;5.25;;;13.10;99.90;;;;;;5007941;28;20048;-67
2022/05/24 04:59:03;;;;;;;11.40;5.32;;;13.10;99.90;;;;;;5006471;28;20042;-68
2022/05/24 05:01:28;;;;;;;12.07;5.07;;;13.10;99.90;;;;;;5009278;28;20029;-67
2022/05/24 05:03:54;;;;;;;16.48;5.45;;;13.10;99.90;;;;;;5006273;28;20033;-67
2022/05/24 05:06:20;;;;;;;11.23;4.22;;;13.10;99.90;;;;;;5011862;28;20034;-67
2022/05/24 05:08:46;;;;;;;11.10;4.30;;;13.20;99.90;;;;;;5009338;28;20034;-67
2022/05/24 05:11:11;;;;;;;8.90;3.75;;;13.30;99.90;;;;;;5009411;28;20034;-67
2022/05/24 05:13:37;;;;;;;7.97;3.40;;;13.30;99.90;;;;;;5008734;28;20038;-68
2022/05/24 05:16:02;;;;;;;7.88;2.88;;;13.30;99.90;;;;;;5007214;28;20069;-67
2022/05/24 05:18:28;;;;;;;9.43;3.28;;;13.30;99.90;;;;;;5006294;28;20041;-68
2022/05/24 05:20:54;;;;;;;9.32;2.60;;;13.30;99.90;;;;;;5008780;28;20037;-67
2022/05/24 05:23:19;;;;;;;6.95;2.53;;;13.30;99.90;;;;;;5009355;28;20482;-69
2022/05/24 05:25:49;;;;;;;9.95;2.80;;;13.30;99.90;;;;;;5009844;28;20029;-67
2022/05/24 05:28:16;;;;;;;11.38;3.00;;;13.30;99.90;;;;;;5003704;28;20037;-67
2022/05/24 05:33:26;;;;;;;7.65;1.70;;;13.30;99.90;;;;;;5007996;28;20041;-69
2022/05/24 05:35:52;;;;;;;5.90;1.95;;;13.40;99.90;;;;;;5008714;28;20046;-67
2022/05/24 05:38:18;;;;;;;16.98;2.67;;;13.40;99.90;;;;;;5013769;28;20502;-67
2022/05/24 05:40:44;;;;;;;8.00;1.95;;;13.40;99.90;;;;;;5007921;28;20729;-67
2022/05/24 05:43:10;;;;;;;4.28;1.52;;;13.40;99.90;;;;;;5009786;28;20521;-67
2022/05/24 05:45:36;;;;;;;4.03;2.10;;;13.40;99.90;;;;;;5006743;28;20037;-67
2022/05/24 05:48:02;;;;;;;5.40;1.65;;;13.40;99.90;;;;;;5005718;28;20034;-66
2022/05/24 05:50:28;;;;;;;7.70;1.90;;;13.50;99.90;;;;;;5004936;28;20469;-70
2022/05/24 05:52:53;;;;;;;10.05;2.65;;;13.50;99.90;;;;;;5007525;28;20406;-67
2022/05/24 05:55:19;;;;;;;6.88;1.48;;;13.50;99.90;;;;;;5009991;28;20133;-67
2022/05/24 05:57:45;;;;;;;4.72;1.60;;;13.50;99.90;;;;;;5006181;28;20042;-68
2022/05/24 06:00:12;;;;;;;6.85;1.75;;;13.60;99.90;;;;;;5006144;28;20084;-67
2022/05/24 06:02:38;;;;;;;8.38;2.15;;;13.60;99.90;;;;;;5008136;28;20879;-67
2022/05/24 06:05:05;;;;;;;10.10;2.15;;;13.60;99.90;;;;;;5006837;28;20128;-69
2022/05/24 06:07:31;;;;;;;3.28;1.33;;;13.60;99.90;;;;;;5006359;28;20126;-67
2022/05/24 06:09:58;;;;;;;12.82;2.10;;;13.60;99.90;;;;;;5011738;28;20172;-68
2022/05/24 06:12:24;;;;;;;6.15;2.00;;;13.60;99.90;;;;;;5003624;28;21590;-67
2022/05/24 06:14:50;;;;;;;4.68;1.33;;;13.60;99.90;;;;;;5006280;28;20042;-67
2022/05/24 06:17:16;;;;;;;4.82;1.38;;;13.60;99.90;;;;;;5001825;28;20410;-68
2022/05/24 06:19:42;;;;;;;4.78;1.70;;;13.60;99.90;;;;;;5008855;28;20737;-69
2022/05/24 06:22:08;;;;;;;3.47;1.77;;;13.60;99.90;;;;;;5007942;28;20076;-67
2022/05/24 06:24:34;;;;;;;7.10;2.47;;;13.70;99.90;;;;;;5010775;28;20065;-67
2022/05/24 06:26:59;;;;;;;6.30;2.33;;;13.80;99.90;;;;;;5010233;28;20048;-67
2022/05/24 06:29:25;;;;;;;8.93;2.70;;;13.90;99.90;;;;;;5004174;28;20061;-69
2022/05/24 06:31:50;;;;;;;8.07;2.70;;;14.00;99.90;;;;;;5007623;28;20489;-67
2022/05/24 06:34:16;;;;;;;7.97;3.83;;;14.10;99.90;;;;;;5010478;28;20053;-68
2022/05/24 06:36:42;;;;;;;6.47;2.63;;;14.20;99.90;;;;;;5005303;28;20034;-66
2022/05/24 06:39:07;;;;;;;5.75;2.60;;;14.30;99.90;;;;;;5009974;28;20044;-67
2022/05/24 06:41:33;;;;;;;4.22;2.08;;;14.60;99.90;;;;;;5013059;28;20767;-67
2022/05/24 06:43:59;;;;;;;11.95;2.38;;;15.00;99.90;;;;;;5015691;28;20042;-67
2022/05/24 06:46:26;;;;;;;5.97;1.83;;;15.60;99.90;;;;;;5010970;28;20405;-67
2022/05/24 06:48:51;;;;;;;5.20;1.67;;;16.00;99.90;;;;;;5017655;28;20042;-68
2022/05/24 06:51:19;;;;;;;4.40;1.67;;;16.30;99.90;;;;;;5013274;28;20068;-68
2022/05/24 06:53:47;;;;;;;6.90;1.60;;;16.30;99.90;;;;;;5008263;28;20597;-67
2022/05/24 06:56:13;;;;;;;5.85;1.45;;;16.00;99.90;;;;;;5011901;28;20033;-69
2022/05/24 06:58:38;;;;;;;4.30;1.42;;;16.20;99.90;;;;;;5010903;28;20045;-67
2022/05/24 07:03:52;;;;;;;3.10;1.23;;;15.90;99.90;;;;;;5010953;28;20088;-67
2022/05/24 07:06:18;;;;;;;3.05;1.10;;;15.50;99.90;;;;;;5007551;28;20129;-70
2022/05/24 07:08:46;;;;;;;5.85;1.27;;;15.30;99.90;;;;;;5010148;28;20193;-66
2022/05/24 07:11:13;;;;;;;5.13;1.00;;;15.00;99.90;;;;;;5010244;28;20038;-67
2022/05/24 07:13:39;;;;;;;6.90;1.05;;;14.80;99.90;;;;;;5009253;28;20034;-69
2022/05/24 07:16:06;;;;;;;2.97;1.10;;;14.80;99.90;;;;;;5013760;28;20446;-67
2022/05/24 07:18:32;;;;;;;8.25;1.33;;;15.20;99.90;;;;;;5006683;28;20033;-67
2022/05/24 07:20:58;;;;;;;4.35;1.05;;;15.90;99.90;;;;;;5011361;28;20422;-67
2022/05/24 07:23:26;;;;;;;2.22;0.70;;;17.10;99.90;;;;;;5013422;28;20037;-69
2022/05/24 07:25:54;;;;;;;3.92;0.85;;;18.60;99.90;;;;;;5014800;28;20077;-67
2022/05/24 07:28:20;;;;;;;12.73;1.00;;;18.90;99.90;;;;;;5010945;28;20030;-67
2022/05/24 07:30:49;;;;;;;3.53;0.95;;;18.80;99.90;;;;;;5012057;28;20095;-69
2022/05/24 07:33:16;;;;;;;6.40;1.10;;;19.40;99.90;;;;;;5009705;28;20107;-67
2022/05/24 07:35:42;;;;;;;6.15;1.05;;;20.40;99.90;;;;;;5008104;28;20065;-66
2022/05/24 07:38:12;;;;;;;3.13;0.90;;;21.30;99.90;;;;;;5012687;28;20135;-67
2022/05/24 07:46:11;;;;;;;1.85;0.85;;;22.10;99.90;;;;;;5010112;28;20037;-67
2022/05/24 07:48:37;;;;;;;6.68;1.05;;;22.70;99.90;;;;;;5009315;28;20042;-68
2022/05/24 07:51:03;;;;;;;7.05;0.60;;;21.80;99.90;;;;;;5014238;28;20083;-71
2022/05/24 07:53:29;;;;;;;2.20;0.60;;;21.10;99.90;;;;;;5008485;28;20041;-68
2022/05/24 07:55:56;;;;;;;1.92;0.90;;;20.00;99.90;;;;;;5012709;28;20045;-67
2022/05/24 07:58:22;;;;;;;2.13;0.75;;;19.40;99.90;;;;;;5013416;28;20456;-68
2022/05/24 08:00:49;;;;;;;2.63;0.82;;;18.80;99.90;;;;;;5008670;28;20133;-70
2022/05/24 08:03:14;;;;;;;3.40;0.63;;;18.20;99.90;;;;;;5005956;28;20038;-67
2022/05/24 08:05:41;;;;;;;3.17;0.50;;;17.70;99.90;;;;;;5013726;28;20053;-67
2022/05/24 08:08:08;;;;;;;1.75;0.40;;;17.50;99.90;;;;;;5009691;28;20043;-66
2022/05/24 08:10:36;;;;;;;2.22;0.22;;;17.20;99.90;;;;;;5005956;28;20149;-68
2022/05/24 08:13:08;;;;;;;2.03;0.30;;;17.00;99.90;;;;;;5014359;28;20038;-66
2022/05/24 08:15:33;;;;;;;1.65;0.50;;;16.70;99.90;;;;;;5011351;28;20041;-66
2022/05/24 08:17:59;;;;;;;2.63;0.50;;;16.60;99.90;;;;;;5012357;28;20034;-66
2022/05/24 08:20:25;;;;;;;3.80;0.30;;;16.30;99.90;;;;;;5012241;28;20048;-66
2022/05/24 08:22:51;;;;;;;3.58;0.38;;;16.00;99.90;;;;;;5011328;28;20041;-67
2022/05/24 08:25:17;;;;;;;2.78;0.50;;;15.90;99.90;;;;;;5007688;28;20030;-66
2022/05/24 08:27:43;;;;;;;2.80;0.38;;;15.90;99.90;;;;;;5010334;28;20168;-71
2022/05/24 08:30:12;;;;;;;2.35;0.45;;;15.90;99.90;;;;;;5012835;28;20042;-66
2022/05/24 08:32:39;;;;;;;2.10;0.60;;;16.00;99.90;;;;;;5007918;28;20825;-66
2022/05/24 08:35:06;;;;;;;3.88;0.90;;;16.10;99.90;;;;;;5009631;28;20652;-66
2022/05/24 08:37:31;;;;;;;1.50;0.40;;;16.30;99.90;;;;;;5007484;28;20065;-67
2022/05/24 08:39:59;;;;;;;1.67;0.35;;;16.30;99.90;;;;;;5009350;28;20469;-66
2022/05/24 08:42:33;;;;;;;4.70;0.60;;;16.30;99.90;;;;;;5007955;28;20026;-68
2022/05/24 08:50:48;;;;;;;1.40;0.25;;;15.90;99.90;;;;;;5011895;28;20060;-67
2022/05/24 08:53:24;;;;;;;0.88;0.57;;;15.90;99.90;;;;;;5013520;28;20139;-66
2022/05/24 08:55:50;;;;;;;2.05;0.30;;;16.10;99.90;;;;;;5010829;28;20478;-68
2022/05/24 08:58:30;;;;;;;1.92;0.10;;;16.70;99.90;;;;;;5004360;28;20100;-67
2022/05/24 09:00:56;;;;;;;1.50;0.30;;;17.10;99.90;;;;;;5008950;28;20045;-66
2022/05/24 09:03:25;;;;;;;0.88;0.15;;;17.30;99.90;;;;;;5006043;28;20111;-68
2022/05/24 09:06:04;;;;;;;1.55;0.57;;;17.30;99.90;;;;;;5009418;28;20038;-66
2022/05/24 09:08:40;;;;;;;4.10;0.40;;;17.00;99.90;;;;;;5011172;28;20513;-68
2022/05/24 09:11:10;;;;;;;0.90;0.22;;;16.40;99.90;;;;;;5009739;28;20045;-68
2022/05/24 09:14:01;;;;;;;2.08;0.25;;;15.90;99.90;;;;;;5005481;28;20492;-68
2022/05/24 09:16:49;;;;;;;0.75;0.20;;;15.50;99.90;;;;;;5008429;28;20097;-66
2022/05/24 09:19:23;;;;;;;5.28;0.30;;;15.10;99.90;;;;;;5011010;28;20526;-69
2022/05/24 09:21:52;;;;;;;3.95;0.22;;;15.00;99.90;;;;;;5009769;28;20033;-69
2022/05/24 09:24:41;;;;;;;3.35;0.20;;;14.80;99.90;;;;;;5005268;28;20574;-69
2022/05/24 09:27:14;;;;;;;5.68;0.40;;;14.90;99.90;;;;;;5006409;28;20041;-66
2022/05/24 09:30:11;;;;;;;1.92;0.88;;;14.90;99.90;;;;;;5010419;28;20037;-69
2022/05/24 09:32:42;;;;;;;2.50;0.40;;;15.30;99.90;;;;;;5006231;28;20566;-66
2022/05/24 09:35:16;;;;;;;3.60;0.40;;;15.60;99.90;;;;;;5004818;28;20058;-67
2022/05/24 09:37:45;;;;;;;1.85;0.80;;;15.90;99.90;;;;;;5005100;28;20038;-66
2022/05/24 09:40:21;;;;;;;1.05;0.60;;;16.20;99.90;;;;;;5012100;28;20540;-67
2022/05/24 09:42:47;;;;;;;1.77;0.68;;;16.50;99.90;;;;;;5008340;28;20061;-69
2022/05/24 09:45:15;;;;;;;1.55;0.40;;;16.90;99.90;;;;;;5004468;28;20057;-66
2022/05/24 09:47:43;;;;;;;3.88;0.60;;;17.00;99.90;;;;;;5011255;28;20045;-67
2022/05/24 09:50:18;;;;;;;1.65;0.43;;;17.00;99.90;;;;;;5011310;28;20399;-69
2022/05/24 09:53:08;;;;;;;1.75;0.52;;;16.80;99.90;;;;;;5005088;28;20047;-67
2022/05/24 09:55:36;;;;;;;0.93;0.20;;;16.70;99.90;;;;;;5002237;28;20046;-68
2022/05/24 09:58:28;;;;;;;2.13;0.40;;;16.40;99.90;;;;;;5011712;28;20040;-67
2022/05/24 10:01:00;;;;;;;3.00;0.85;;;16.00;99.90;;;;;;5006628;28;20068;-68
2022/05/24 10:03:27;;;;;;;2.88;0.35;;;15.60;99.90;;;;;;5007255;28;20120;-67
2022/05/24 10:06:06;;;;;;;4.53;0.30;;;15.20;99.90;;;;;;5007827;28;20057;-66
2022/05/24 10:08:43;;;;;;;1.30;0.20;;;14.90;99.90;;;;;;5004199;28;20064;-68
2022/05/24 10:11:20;;;;;;;0.65;0.38;;;14.60;99.90;;;;;;5008811;28;20048;-65
2022/05/24 10:14:31;;;;;;;2.17;0.40;;;14.30;99.90;;;;;;5006107;28;20125;-66
2022/05/24 10:17:13;;;;;;;3.15;0.20;;;14.20;99.90;;;;;;4996688;28;20048;-66
2022/05/24 10:20:10;;;;;;;1.63;0.40;;;14.20;99.90;;;;;;5005661;28;20026;-66
2022/05/24 10:22:55;;;;;;;2.08;0.30;;;14.40;99.90;;;;;;4998970;28;20048;-69
2022/05/24 10:25:53;;;;;;;1.05;0.50;;;14.70;99.90;;;;;;5008257;28;20025;-68
2022/05/24 10:28:48;;;;;;;0.80;0.30;;;15.10;99.90;;;;;;5004046;28;20068;-67
2022/05/24 10:31:46;;;;;;;1.80;0.40;;;15.50;99.90;;;;;;5010265;28;20148;-67
2022/05/24 10:40:55;;;;;;;0.88;0.40;;;16.10;99.90;;;;;;5010536;28;20037;-68
2022/05/24 10:43:43;;;;;;;3.72;1.08;;;16.20;99.90;;;;;;5011541;28;20029;-67
2022/05/24 10:46:16;;;;;;;3.45;0.95;;;16.20;99.90;;;;;;5004904;28;20041;-66
2022/05/24 10:49:07;;;;;;;3.38;0.70;;;16.20;99.90;;;;;;5007289;28;20040;-66
2022/05/24 10:51:47;;;;;;;2.70;0.88;;;16.40;99.90;;;;;;5006418;28;20052;-66
2022/05/24 10:54:26;;;;;;;;;;;16.50;99.90;;;;;;5010167;28;20068;-71
2022/05/24 10:57:13;;;;;;;2.33;0.73;;;16.50;99.90;;;;;;5007523;28;19913;-67
2022/05/24 10:59:59;;;;;;;1.60;0.52;;;16.70;99.90;;;;;;5001731;28;20333;-66
2022/05/24 11:02:49;;;;;;;4.90;0.60;;;16.80;99.90;;;;;;4998676;28;20116;-69
2022/05/24 11:05:21;;;;;;;2.50;1.00;;;16.90;99.90;;;;;;5004322;28;20041;-66
2022/05/24 11:07:58;;;;;;;3.70;1.05;;;17.10;99.90;;;;;;5008669;28;20271;-67
2022/05/24 11:10:31;;;;;;;5.13;0.55;;;17.30;99.90;;;;;;5003026;28;20497;-67
2022/05/24 11:13:01;;;;;;;3.60;0.50;;;17.20;99.90;;;;;;5003685;28;20041;-66
2022/05/24 11:15:38;;;;;;;2.83;0.40;;;17.20;99.90;;;;;;5006726;28;20068;-68
2022/05/24 11:18:18;;;;;;;1.90;0.60;;;16.90;99.90;;;;;;5009547;28;20060;-68
2022/05/24 11:20:55;;;;;;;0.98;0.55;;;16.80;99.90;;;;;;5006410;28;20038;-67
2022/05/24 11:23:27;;;;;;;3.35;0.55;;;17.00;99.90;;;;;;5004925;28;20036;-69
2022/05/24 11:26:08;;;;;;;4.82;0.50;;;17.30;99.90;;;;;;5002344;28;20513;-67
2022/05/24 11:28:47;;;;;;;1.67;0.38;;;17.60;99.90;;;;;;5008824;28;20140;-67
2022/05/24 11:31:26;;;;;;;3.08;0.40;;;17.70;99.90;;;;;;5013789;28;20033;-67
2022/05/24 11:33:53;;;;;;;2.17;0.50;;;17.90;99.90;;;;;;5008066;28;20125;-69
2022/05/24 11:36:42;;;;;;;3.20;0.45;;;18.20;99.90;;;;;;5019200;28;20037;-68
2022/05/24 11:39:23;;;;;;;5.35;0.40;;;18.10;99.90;;;;;;5017678;28;20033;-68
2022/05/24 11:41:49;;;;;;;1.80;0.45;;;17.80;99.90;;;;;;5014992;28;20046;-67
2022/05/24 11:44:34;;;;;;;1.30;0.30;;;17.50;99.90;;;;;;5014503;28;20119;-66
2022/05/24 11:47:00;;;;;;;3.38;0.30;;;17.20;99.90;;;;;;5013935;28;20050;-70
2022/05/24 11:49:27;;;;;;;1.85;0.68;;;17.00;99.90;;;;;;5011940;28;20036;-66
2022/05/24 11:51:57;;;;;;;3.05;0.30;;;16.80;99.90;;;;;;5006012;28;20038;-66
2022/05/24 11:54:26;;;;;;;2.90;0.50;;;16.60;99.90;;;;;;5006833;28;20583;-71
2022/05/24 11:57:01;;;;;;;3.45;0.30;;;16.60;99.90;;;;;;5005035;28;20041;-66
2022/05/24 11:59:48;;;;;;;1.17;0.40;;;16.50;99.90;;;;;;5005597;28;20038;-68
2022/05/24 12:02:19;;;;;;;1.90;0.30;;;16.40;99.90;;;;;;5007870;28;20144;-68
2022/05/24 12:07:55;;;;;;;3.85;0.32;;;16.30;99.90;;;;;;5010146;28;20133;-66
2022/05/24 12:10:21;;;;;;;5.13;0.50;;;16.50;99.90;;;;;;5003336;28;20049;-67
2022/05/24 12:13:02;;;;;;;3.80;0.43;;;16.60;99.90;;;;;;5010986;28;20045;-66
2022/05/24 12:15:31;;;;;;;2.00;0.57;;;16.60;99.90;;;;;;5007585;28;20034;-66
2022/05/24 12:17:59;;;;;;;3.05;0.57;;;16.80;99.90;;;;;;5023257;28;20291;-67
2022/05/24 12:20:34;;;;;;;1.95;0.52;;;17.20;99.90;;;;;;5020064;28;20038;-67
2022/05/24 12:23:28;;;;;;;3.63;0.40;;;17.50;99.90;;;;;;5022646;28;20050;-67
2022/05/24 12:26:02;;;;;;;0.73;0.32;;;17.70;99.90;;;;;;5015961;28;20052;-68
2022/05/24 12:28:36;;;;;;;2.47;0.30;;;17.90;99.90;;;;;;5015006;28;20147;-66
2022/05/24 12:31:22;;;;;;;1.10;0.40;;;18.00;99.90;;;;;;5015957;28;20167;-66
2022/05/24 12:34:00;;;;;;;2.55;0.82;;;17.80;99.90;;;;;;5001645;28;20041;-67
2022/05/24 12:36:32;;;;;;;1.30;0.52;;;17.80;99.90;;;;;;5006062;28;20057;-66
2022/05/24 12:39:07;;;;;;;2.95;0.40;;;17.70;99.90;;;;;;5013801;28;20042;-66
2022/05/24 12:41:45;;;;;;;2.50;0.30;;;17.80;99.90;;;;;;5010072;28;20038;-67
2022/05/24 12:44:26;;;;;;;0.77;0.17;;;18.10;99.90;;;;;;5011635;28;20046;-66
2022/05/24 12:47:06;;;;;;;0.75;0.40;;;18.10;99.90;;;;;;5008111;28;20041;-70
2022/05/24 12:49:50;;;;;;;4.07;0.15;;;18.10;99.90;;;;;;5011877;28;20049;-68
2022/05/24 12:52:22;;;;;;;0.68;0.20;;;18.30;99.90;;;;;;5008396;28;20030;-67
2022/05/24 12:54:50;;;;;;;3.53;0.52;;;18.40;99.90;;;;;;5007747;28;20525;-66
2022/05/24 12:57:21;;;;;;;0.63;0.15;;;18.30;99.90;;;;;;5003987;28;20596;-65
2022/05/24 12:59:58;;;;;;;2.72;0.30;;;18.00;99.90;;;;;;5013512;28;20383;-66
2022/05/24 13:02:40;;;;;;;2.53;0.10;;;17.90;99.90;;;;;;5006398;28;20506;-66
2022/05/24 13:05:12;;;;;;;3.10;0.00;;;17.90;99.90;;;;;;5006762;28;20125;-67
2022/05/24 13:07:45;;;;;;;0.20;0.10;;;17.90;99.90;;;;;;5010709;28;20026;-66
2022/05/24 13:10:23;;;;;;;0.73;0.10;;;17.80;99.90;;;;;;5010735;28;20037;-67
2022/05/24 13:12:51;;;;;;;0.85;0.30;;;18.10;99.90;;;;;;5005287;28;20089;-66
2022/05/24 13:15:20;;;;;;;2.20;0.10;;;18.10;99.90;;;;;;5004204;28;20678;-70
2022/05/24 13:17:51;;;;;;;1.73;0.15;;;18.10;99.90;;;;;;5006675;28;20088;-66
2022/05/24 13:20:16;;;;;;;0.93;0.10;;;18.20;99.90;;;;;;5007870;28;20051;-66
2022/05/24 13:22:55;;;;;;;0.28;0.28;;;18.20;99.90;;;;;;5008467;28;20536;-70
2022/05/24 13:25:48;;;;;;;0.30;0.10;;;18.40;99.90;;;;;;5004761;28;20430;-67
2022/05/24 13:28:33;;;;;;;0.45;0.10;;;18.30;99.90;;;;;;5008601;28;20396;-69
2022/05/24 13:33:51;;;;;;;1.35;0.10;;;18.20;99.90;;;;;;5009122;28;20156;-67
2022/05/24 13:36:27;;;;;;;2.97;0.10;;;18.30;99.90;;;;;;5008344;28;20486;-67
2022/05/24 13:39:02;;;;;;;1.45;0.10;;;18.30;99.90;;;;;;5006891;28;20049;-66
2022/05/24 13:41:30;;;;;;;0.20;0.10;;;18.30;99.90;;;;;;5011951;28;20057;-67
2022/05/24 13:44:07;;;;;;;0.60;0.10;;;18.40;99.90;;;;;;5007428;28;20129;-66
2022/05/24 13:46:52;;;;;;;1.95;0.10;;;18.40;99.90;;;;;;5008765;28;20779;-67
2022/05/24 13:49:31;;;;;;;1.75;0.10;;;18.40;99.90;;;;;;5004539;28;20034;-66
2022/05/24 13:52:21;;;;;;;0.85;0.00;;;18.60;99.90;;;;;;5008614;28;20113;-68
2022/05/24 13:54:48;;;;;;;;;;;18.60;99.90;;;;;;5010247;28;20112;-66
2022/05/24 13:57:31;;;;;;;1.30;0.52;;;18.70;99.90;;;;;;5009071;28;20296;-70